Harwich, MA (02645)

4:34 PM EST on December 28, 2014 (GMT -0500)
N2KNL / KB1VAJ Amateur Radio | Change Station
CLOSE
Current Station
Personal Weather Station
Location: Harwich Weather, MA
Elevation: 36 ft
Nearby Weather Stations

Elev 36 ft 41.68 °N, 70.06 °W | Updated 3 seconds ago

Overcast
Overcast
46.0 °F
Feels Like 44 °F
N
4.8
Wind Variable Wind from WNW
Gusts 8.1 mph

Today
High -- | Low -- °F
--% Chance of Precip.
Yesterday
High -- | Low -- °F
Precip. -- in
7:06 AM 4:17 PM
First Quarter, 51% visible
Pressure 29.83 in
Visibility 10.0 miles
Clouds Overcast 10000 ft
Windchill 44 °F
Dew Point 44 °F
Humidity 93%
Rainfall 0.02 in
Snow Depth Not available.
UV 0 out of 12
Pollen .10 out of 12
Air Quality Not available.
Flu Activity Not available.
METAR KCQX 282052Z AUTO 22006KT 10SM OVC100 07/06 A2982 RMK AO2 SLP101 60000 T00720056 50014

More Conditions Fewer Conditions

Pressure 29.83 in
Visibility 10.0 miles
Clouds Overcast 10000 ft
Windchill 44 °F
Dew Point 44 °F
Humidity 93%
Rainfall 0.02 in
Snow Depth Not available.
UV 0 out of 12
Pollen .10 out of 12
Air Quality Not available.
Flu Activity Not available.
METAR KCQX 282052Z AUTO 22006KT 10SM OVC100 07/06 A2982 RMK AO2 SLP101 60000 T00720056 50014

More Conditions Fewer Conditions

10-Day Weather Forecast

Almanac

Astronomy

Dec. 28, 2014 Rise Set
Actual Time
Civil Twilight
Nautical Twilight
Astronomical Twilight
Moon
Length of Visible Light
Length of Day
Tomorrow will be .
, % of the Moon is Illuminated

Today's Extremes

State Highs State Lows

Community

WunderPhotos

Upload Photos

1,781,433 photos uploaded!

WunderBlogs® & News

Nearby

Air Quality

  Air Quality AQ Index Pollutant
Not available.

Snow Depth

Station Depth Elevation

Earthquake Activity

City Distance Mag. Time & Date
Minimum magnitude displayed is 2.5.

Coastal Water Temperatures

Place Temperature

Nearby Weather Stations